Time;durP1;ratioP1;P1;durP2;ratioP2;P2;SDS_P1;SDS_P2;PMS_P1;PMS_P2;Temp;Humidity;BMP_temperature;BMP_pressure;BME280_temperature;BME280_humidity;BME280_pressure;Samples;Min_cycle;Max_cycle;Signal;HPM_P1;HPM_P2
2021/03/01 00:02:22;;;;;;;34.73;30.40;;;4.90;99.90;;;;;;5075079;28;20519;-65
2021/03/01 00:04:47;;;;;;;44.10;31.47;;;4.90;99.90;;;;;;5075135;28;20206;-65
2021/03/01 00:07:13;;;;;;;39.00;31.07;;;4.90;99.90;;;;;;5075250;28;20168;-65
2021/03/01 00:09:38;;;;;;;35.30;30.80;;;4.90;99.90;;;;;;5075257;28;20170;-65
2021/03/01 00:12:04;;;;;;;34.97;29.20;;;5.00;99.90;;;;;;5075212;28;20608;-65
2021/03/01 00:14:30;;;;;;;41.10;30.03;;;5.00;99.90;;;;;;5073920;28;20207;-65
2021/03/01 00:16:56;;;;;;;36.30;29.87;;;5.00;99.90;;;;;;5074744;28;20402;-65
2021/03/01 00:19:21;;;;;;;43.97;31.23;;;5.00;99.90;;;;;;5074911;28;20528;-65
2021/03/01 00:21:47;;;;;;;38.67;30.47;;;4.90;99.90;;;;;;5074796;28;20179;-65
2021/03/01 00:24:12;;;;;;;37.47;30.77;;;4.90;99.90;;;;;;5075134;28;20166;-65
2021/03/01 00:26:38;;;;;;;39.10;32.17;;;4.90;99.90;;;;;;5074800;28;20152;-65
2021/03/01 00:29:03;;;;;;;38.97;30.13;;;4.90;99.90;;;;;;5074784;28;20171;-65
2021/03/01 00:31:29;;;;;;;41.23;32.90;;;4.90;99.90;;;;;;5075033;28;20171;-66
2021/03/01 00:33:55;;;;;;;37.73;31.23;;;5.00;99.90;;;;;;5074344;28;20666;-65
2021/03/01 00:36:20;;;;;;;37.77;29.60;;;5.00;99.90;;;;;;5074585;28;20159;-65
2021/03/01 00:38:45;;;;;;;33.77;28.30;;;5.00;99.90;;;;;;5074620;28;20250;-65
2021/03/01 00:41:11;;;;;;;40.77;29.10;;;5.00;99.90;;;;;;5074417;28;20527;-65
2021/03/01 00:43:37;;;;;;;40.37;31.57;;;5.00;99.90;;;;;;5074633;28;20166;-65
2021/03/01 00:46:02;;;;;;;38.97;30.87;;;5.00;99.90;;;;;;5074252;28;20198;-65
2021/03/01 00:48:28;;;;;;;38.80;30.83;;;5.00;99.90;;;;;;5079735;28;20249;-65
2021/03/01 00:50:53;;;;;;;42.57;33.03;;;5.10;99.90;;;;;;5094510;28;20155;-65
2021/03/01 00:53:26;;;;;;;39.77;29.70;;;5.00;99.90;;;;;;5094538;28;20608;-65
2021/03/01 00:55:52;;;;;;;35.17;27.70;;;5.00;99.90;;;;;;5076989;28;20182;-65
2021/03/01 00:58:18;;;;;;;33.70;26.70;;;5.00;99.90;;;;;;5094109;28;20389;-65
2021/03/01 01:00:46;;;;;;;34.73;28.33;;;5.00;99.90;;;;;;5094313;28;20587;-65
2021/03/01 01:03:13;;;;;;;34.60;27.33;;;5.00;99.90;;;;;;5094175;28;20393;-65
2021/03/01 01:05:38;;;;;;;33.03;26.10;;;4.90;99.90;;;;;;5093790;28;20417;-65
2021/03/01 01:08:04;;;;;;;40.80;28.30;;;4.80;99.90;;;;;;5094153;28;20764;-65
2021/03/01 01:10:30;;;;;;;32.53;27.50;;;4.70;99.90;;;;;;5093937;28;20150;-65
2021/03/01 01:12:55;;;;;;;34.60;29.43;;;4.60;99.90;;;;;;5093779;28;20397;-65
2021/03/01 01:15:21;;;;;;;36.33;29.60;;;4.60;99.90;;;;;;5093808;28;20179;-65
2021/03/01 01:17:47;;;;;;;35.33;27.67;;;4.60;99.90;;;;;;5092865;28;20515;-65
2021/03/01 01:20:13;;;;;;;34.20;26.90;;;4.60;99.90;;;;;;5094035;28;20641;-65
2021/03/01 01:22:40;;;;;;;38.77;30.10;;;4.60;99.90;;;;;;5092229;28;20631;-65
2021/03/01 01:25:08;;;;;;;34.83;27.50;;;4.70;99.90;;;;;;5093733;28;20397;-65
2021/03/01 01:27:34;;;;;;;36.80;28.57;;;4.70;99.90;;;;;;5093881;28;20397;-65
2021/03/01 01:29:59;;;;;;;34.10;26.77;;;4.70;99.90;;;;;;5093608;28;20470;-65
2021/03/01 01:32:25;;;;;;;33.73;27.90;;;4.80;99.90;;;;;;5093855;28;20155;-65
2021/03/01 01:34:50;;;;;;;32.77;28.07;;;4.70;99.90;;;;;;5093680;28;20277;-65
2021/03/01 01:37:16;;;;;;;36.40;28.67;;;4.70;99.90;;;;;;5093664;28;20161;-65
2021/03/01 01:39:41;;;;;;;39.30;31.00;;;4.70;99.90;;;;;;5092555;28;20170;-65
2021/03/01 01:42:07;;;;;;;35.83;28.07;;;4.70;99.90;;;;;;5093528;28;20159;-65
2021/03/01 01:44:32;;;;;;;39.33;28.93;;;4.70;99.90;;;;;;5091926;28;20204;-65
2021/03/01 01:46:58;;;;;;;37.67;28.30;;;4.70;99.90;;;;;;5092141;28;20191;-65
2021/03/01 01:49:23;;;;;;;33.17;26.07;;;4.80;99.90;;;;;;5073221;28;20167;-65
2021/03/01 01:51:49;;;;;;;33.47;26.43;;;4.80;99.90;;;;;;5073059;28;20677;-65
2021/03/01 01:54:15;;;;;;;31.13;25.83;;;4.80;99.90;;;;;;5073225;28;20570;-65
2021/03/01 01:56:40;;;;;;;34.60;27.70;;;4.80;99.90;;;;;;5073593;28;20654;-65
2021/03/01 01:59:07;;;;;;;36.00;28.30;;;4.80;99.90;;;;;;5073136;28;20182;-65
2021/03/01 02:01:32;;;;;;;33.00;26.23;;;4.80;99.90;;;;;;5073021;28;20159;-65
2021/03/01 02:04:05;;;;;;;31.70;27.40;;;4.70;99.90;;;;;;5073056;28;20869;-65
2021/03/01 02:09:28;;;;;;;32.97;26.90;;;4.70;99.90;;;;;;5131445;27;20508;-65
2021/03/01 02:12:16;;;;;;;29.40;25.50;;;4.70;99.90;;;;;;5131184;27;20807;-65
2021/03/01 02:14:53;;;;;;;30.87;25.50;;;4.70;99.90;;;;;;5109784;28;20385;-65
2021/03/01 02:17:19;;;;;;;32.70;26.10;;;4.70;99.90;;;;;;5111216;28;20391;-65
2021/03/01 02:19:44;;;;;;;32.43;26.80;;;4.70;99.90;;;;;;5110787;28;20449;-65
2021/03/01 02:22:10;;;;;;;34.10;26.60;;;4.60;99.90;;;;;;5110528;28;20142;-65
2021/03/01 02:24:43;;;;;;;32.93;26.13;;;4.60;99.90;;;;;;5110718;28;20150;-65
2021/03/01 02:27:11;;;;;;;35.67;26.60;;;4.60;99.90;;;;;;5110530;28;20186;-65
2021/03/01 02:29:41;;;;;;;33.40;25.50;;;4.60;99.90;;;;;;5111265;28;20498;-65
2021/03/01 02:32:08;;;;;;;29.00;24.83;;;4.60;99.90;;;;;;5110891;28;20396;-65
2021/03/01 02:34:37;;;;;;;30.83;24.40;;;4.60;99.90;;;;;;5109083;28;20388;-65
2021/03/01 02:37:11;;;;;;;33.60;24.63;;;4.50;99.90;;;;;;5110198;28;20392;-65
2021/03/01 02:39:42;;;;;;;31.43;25.17;;;4.50;99.90;;;;;;5110464;28;20424;-65
2021/03/01 02:42:09;;;;;;;33.40;26.60;;;4.50;99.90;;;;;;5110152;28;20400;-65
2021/03/01 02:44:35;;;;;;;32.97;25.60;;;4.50;99.90;;;;;;5110106;28;20392;-65
2021/03/01 02:47:01;;;;;;;31.23;25.40;;;4.50;99.90;;;;;;5112143;28;20977;-65
2021/03/01 02:49:28;;;;;;;30.30;25.77;;;4.50;99.90;;;;;;5130476;27;20425;-65
2021/03/01 02:51:54;;;;;;;31.07;26.50;;;4.50;99.90;;;;;;5129599;28;20183;-65
2021/03/01 02:54:22;;;;;;;33.27;25.57;;;4.50;99.90;;;;;;5130536;27;20410;-65
2021/03/01 02:56:49;;;;;;;31.00;25.60;;;4.50;99.90;;;;;;5130536;27;20425;-65
2021/03/01 02:59:17;;;;;;;32.50;25.90;;;4.50;99.90;;;;;;5130486;27;20626;-65
2021/03/01 03:01:45;;;;;;;35.37;27.30;;;4.50;99.90;;;;;;5129181;28;20387;-65
2021/03/01 03:04:12;;;;;;;32.33;24.13;;;4.50;99.90;;;;;;5129468;27;20407;-65
2021/03/01 03:06:38;;;;;;;33.20;26.83;;;4.50;99.90;;;;;;5130431;27;20405;-65
2021/03/01 03:09:08;;;;;;;32.60;25.70;;;4.50;99.90;;;;;;5130128;27;20542;-65
2021/03/01 03:11:34;;;;;;;36.70;25.60;;;4.50;99.90;;;;;;5130250;27;20513;-65
2021/03/01 03:14:01;;;;;;;34.87;28.07;;;4.40;99.90;;;;;;5128990;28;21046;-65
2021/03/01 03:16:27;;;;;;;37.83;29.70;;;4.40;99.90;;;;;;5129993;27;20543;-65
2021/03/01 03:18:55;;;;;;;33.43;26.80;;;4.30;99.90;;;;;;5126687;27;20385;-65
2021/03/01 03:21:21;;;;;;;34.57;25.50;;;4.30;99.90;;;;;;5115829;28;20411;-65
2021/03/01 03:23:47;;;;;;;40.77;28.63;;;4.30;99.90;;;;;;5116146;28;20397;-65
2021/03/01 03:26:13;;;;;;;33.13;27.13;;;4.30;99.90;;;;;;5116203;28;20484;-65
2021/03/01 03:28:40;;;;;;;38.97;28.50;;;4.30;99.90;;;;;;5116247;28;20231;-65
2021/03/01 03:31:06;;;;;;;34.80;27.80;;;4.30;99.90;;;;;;5116400;28;20150;-65
2021/03/01 03:33:31;;;;;;;35.70;27.23;;;4.30;99.90;;;;;;5116269;28;20449;-65
2021/03/01 03:35:57;;;;;;;39.10;29.33;;;4.30;99.90;;;;;;5116003;28;20154;-65
2021/03/01 03:38:36;;;;;;;38.47;28.83;;;4.40;99.90;;;;;;5115239;28;20183;-65
2021/03/01 03:41:03;;;;;;;37.40;28.00;;;4.40;99.90;;;;;;5116036;28;20206;-65
2021/03/01 03:43:33;;;;;;;36.60;26.63;;;4.40;99.90;;;;;;5116094;28;20430;-65
2021/03/01 03:46:00;;;;;;;34.70;27.23;;;4.50;99.90;;;;;;5114457;27;20431;-65
2021/03/01 03:48:26;;;;;;;40.30;28.03;;;4.50;99.90;;;;;;5095622;28;20543;-65
2021/03/01 03:50:54;;;;;;;35.73;28.03;;;4.50;99.90;;;;;;5095380;28;20471;-65
2021/03/01 03:53:25;;;;;;;35.07;27.87;;;4.50;99.90;;;;;;5094598;28;20392;-64
2021/03/01 03:55:54;;;;;;;34.90;27.00;;;4.50;99.90;;;;;;5094842;28;20412;-65
2021/03/01 03:58:25;;;;;;;36.67;27.47;;;4.50;99.90;;;;;;5095556;28;20419;-65
2021/03/01 04:00:52;;;;;;;32.90;26.77;;;4.50;99.90;;;;;;5095273;28;20476;-65
2021/03/01 04:03:22;;;;;;;35.67;29.13;;;4.50;99.90;;;;;;5093894;28;20401;-67
2021/03/01 04:05:50;;;;;;;39.77;30.17;;;4.50;99.90;;;;;;5095100;28;20897;-65
2021/03/01 04:08:17;;;;;;;34.70;28.47;;;4.50;99.90;;;;;;5094762;28;20463;-65
2021/03/01 04:10:45;;;;;;;38.00;27.80;;;4.60;99.90;;;;;;5094966;28;20393;-65
2021/03/01 04:13:13;;;;;;;34.37;27.80;;;4.60;99.90;;;;;;5095680;28;20443;-65
2021/03/01 04:15:43;;;;;;;35.53;28.93;;;4.60;99.90;;;;;;5095065;28;20421;-66
2021/03/01 04:18:11;;;;;;;31.23;26.10;;;4.60;99.90;;;;;;5093625;28;20425;-65
2021/03/01 04:20:38;;;;;;;33.20;26.50;;;4.60;99.90;;;;;;5094916;28;20952;-66
2021/03/01 04:23:06;;;;;;;39.30;30.47;;;4.60;99.90;;;;;;5095093;28;20439;-65
2021/03/01 04:25:33;;;;;;;35.60;27.37;;;4.60;99.90;;;;;;5095011;28;20397;-65
2021/03/01 04:28:00;;;;;;;35.90;28.00;;;4.60;99.90;;;;;;5095416;28;20956;-65
2021/03/01 04:30:25;;;;;;;33.73;27.07;;;4.60;99.90;;;;;;5094010;28;20393;-65
2021/03/01 04:32:52;;;;;;;29.50;23.43;;;4.50;99.90;;;;;;5094313;28;20389;-65
2021/03/01 04:35:19;;;;;;;34.37;26.87;;;4.50;99.90;;;;;;5094552;28;20160;-65
2021/03/01 04:37:46;;;;;;;32.53;26.43;;;4.50;99.90;;;;;;5094430;28;20427;-65
2021/03/01 04:40:13;;;;;;;31.97;25.63;;;4.50;99.90;;;;;;5094670;28;20393;-65
2021/03/01 04:42:43;;;;;;;32.07;26.00;;;4.50;99.90;;;;;;5094722;28;20388;-65
2021/03/01 04:45:10;;;;;;;32.60;26.03;;;4.50;99.90;;;;;;5093543;28;20439;-65
2021/03/01 04:47:36;;;;;;;34.53;26.87;;;4.50;99.90;;;;;;5109158;28;20556;-66
2021/03/01 04:50:02;;;;;;;27.90;23.87;;;4.50;99.90;;;;;;5114711;28;20385;-66
2021/03/01 04:52:31;;;;;;;26.20;22.17;;;4.50;99.90;;;;;;5113455;28;20387;-66
2021/03/01 04:55:00;;;;;;;28.50;24.37;;;4.50;99.90;;;;;;5114723;28;20875;-66
2021/03/01 04:57:26;;;;;;;28.60;24.13;;;4.50;99.90;;;;;;5114845;28;20925;-66
2021/03/01 04:59:52;;;;;;;26.73;23.03;;;4.50;99.90;;;;;;5114507;28;20523;-66
2021/03/01 05:02:19;;;;;;;30.27;23.33;;;4.50;99.90;;;;;;5113538;28;20949;-66
2021/03/01 05:04:45;;;;;;;28.27;21.90;;;4.40;99.90;;;;;;5114396;28;20400;-66
2021/03/01 05:07:11;;;;;;;31.73;24.93;;;4.40;99.90;;;;;;5114147;28;20428;-66
2021/03/01 05:09:38;;;;;;;27.53;23.37;;;4.40;99.90;;;;;;5114614;28;20158;-66
2021/03/01 05:12:05;;;;;;;31.53;23.80;;;4.40;99.90;;;;;;5114311;28;20388;-66
2021/03/01 05:14:31;;;;;;;32.37;24.43;;;4.40;99.90;;;;;;5114075;28;20516;-66
2021/03/01 05:16:56;;;;;;;31.97;25.40;;;4.40;99.90;;;;;;5114248;28;20392;-66
2021/03/01 05:19:22;;;;;;;30.80;23.27;;;4.40;99.90;;;;;;5113270;28;20193;-66
2021/03/01 05:21:47;;;;;;;28.73;23.60;;;4.40;99.90;;;;;;5113030;28;20159;-66
2021/03/01 05:24:13;;;;;;;30.00;24.10;;;4.40;99.90;;;;;;5114263;28;20177;-66
2021/03/01 05:26:38;;;;;;;30.50;23.40;;;4.40;99.90;;;;;;5114313;28;20158;-66
2021/03/01 05:29:04;;;;;;;25.93;21.70;;;4.40;99.90;;;;;;5113922;27;20227;-66
2021/03/01 05:31:30;;;;;;;30.20;22.70;;;4.40;99.90;;;;;;5113857;28;20235;-66
2021/03/01 05:33:55;;;;;;;30.80;23.10;;;4.30;99.90;;;;;;5114038;28;20188;-66
2021/03/01 05:36:21;;;;;;;29.53;21.90;;;4.30;99.90;;;;;;5113560;28;20170;-66
2021/03/01 05:38:47;;;;;;;26.07;21.70;;;4.30;99.90;;;;;;5112658;28;20162;-66
2021/03/01 05:41:15;;;;;;;26.30;21.20;;;4.20;99.90;;;;;;5113896;28;20166;-66
2021/03/01 05:43:41;;;;;;;27.87;21.57;;;4.20;99.90;;;;;;5113520;28;20158;-66
2021/03/01 05:46:07;;;;;;;27.30;20.93;;;4.20;99.90;;;;;;5102760;28;20441;-66
2021/03/01 05:48:34;;;;;;;25.50;20.67;;;4.20;99.90;;;;;;5093337;28;20189;-66
2021/03/01 05:51:02;;;;;;;28.33;21.63;;;4.10;99.90;;;;;;5093396;28;20395;-66
2021/03/01 05:53:36;;;;;;;26.23;20.20;;;4.10;99.90;;;;;;5093750;28;20447;-66
2021/03/01 05:56:02;;;;;;;24.97;20.00;;;4.00;99.90;;;;;;5093282;28;20473;-66
2021/03/01 05:58:29;;;;;;;26.23;20.43;;;4.00;99.90;;;;;;5091835;28;20401;-66
2021/03/01 06:00:59;;;;;;;25.60;20.60;;;4.00;99.90;;;;;;5093240;28;20765;-66
2021/03/01 06:03:27;;;;;;;25.07;21.67;;;4.00;99.90;;;;;;5093898;28;20442;-66
2021/03/01 06:05:53;;;;;;;27.33;22.03;;;4.00;99.90;;;;;;5093205;28;20826;-66
2021/03/01 06:08:19;;;;;;;25.30;20.43;;;4.00;99.90;;;;;;5092973;28;20547;-66
2021/03/01 06:10:44;;;;;;;24.40;20.47;;;4.10;99.90;;;;;;5093658;28;20297;-66
2021/03/01 06:13:10;;;;;;;23.50;19.77;;;4.00;99.90;;;;;;5093355;28;20446;-66
2021/03/01 06:15:38;;;;;;;28.03;21.03;;;4.00;99.90;;;;;;5093375;28;20178;-66
2021/03/01 06:18:06;;;;;;;24.97;18.50;;;4.10;99.90;;;;;;5093481;28;20151;-66
2021/03/01 06:20:33;;;;;;;26.00;19.07;;;4.00;99.90;;;;;;5093090;28;20397;-66
2021/03/01 06:22:59;;;;;;;26.63;20.30;;;4.10;99.90;;;;;;5093106;28;20515;-66
2021/03/01 06:25:24;;;;;;;23.37;19.37;;;4.10;99.90;;;;;;5091927;28;20508;-66
2021/03/01 06:27:55;;;;;;;23.43;19.60;;;4.10;99.90;;;;;;5093491;28;20448;-66
2021/03/01 06:30:26;;;;;;;26.30;21.00;;;4.10;99.90;;;;;;5093083;28;20638;-66
2021/03/01 06:33:13;;;;;;;25.00;19.87;;;4.20;99.90;;;;;;5093060;28;20389;-66
2021/03/01 06:35:56;;;;;;;23.80;19.93;;;4.20;99.90;;;;;;5091975;28;20946;-66
2021/03/01 06:41:17;;;;;;;29.03;21.33;;;4.30;99.90;;;;;;5111043;27;20498;-65
2021/03/01 06:46:33;;;;;;;23.90;19.60;;;4.30;99.90;;;;;;5111188;27;20521;-66
2021/03/01 06:49:15;;;;;;;21.70;19.10;;;4.30;99.90;;;;;;5111142;28;20399;-66
2021/03/01 06:51:41;;;;;;;24.17;18.37;;;4.30;99.90;;;;;;5110986;28;20376;-66
2021/03/01 06:54:07;;;;;;;25.50;18.83;;;4.30;99.90;;;;;;5110897;28;20408;-66
2021/03/01 06:56:39;;;;;;;23.77;19.63;;;4.20;99.90;;;;;;5111308;28;20479;-66
2021/03/01 06:59:13;;;;;;;26.70;19.77;;;4.20;99.90;;;;;;5110746;28;20960;-66
2021/03/01 07:01:49;;;;;;;23.10;18.47;;;4.20;99.90;;;;;;5103662;28;20453;-66
2021/03/01 07:06:57;;;;;;;26.40;19.27;;;4.20;99.90;;;;;;5131665;27;20926;-66
2021/03/01 07:09:25;;;;;;;27.07;20.60;;;4.20;99.90;;;;;;5131553;27;20876;-66
2021/03/01 07:11:51;;;;;;;25.13;19.00;;;4.20;99.90;;;;;;5131342;27;20379;-66
2021/03/01 07:14:20;;;;;;;24.50;20.03;;;4.20;99.90;;;;;;5131192;27;20753;-66
2021/03/01 07:16:47;;;;;;;26.10;20.13;;;4.30;99.90;;;;;;5131376;27;20382;-66
2021/03/01 07:19:19;;;;;;;27.87;19.10;;;4.30;99.90;;;;;;5118900;28;20400;-66
2021/03/01 07:21:48;;;;;;;22.30;18.30;;;4.30;99.90;;;;;;5110751;28;20471;-66
2021/03/01 07:24:18;;;;;;;20.57;17.97;;;4.40;99.90;;;;;;5110627;27;20376;-66
2021/03/01 07:26:45;;;;;;;22.90;18.90;;;4.40;99.90;;;;;;5110703;28;20424;-66
2021/03/01 07:29:14;;;;;;;22.57;18.33;;;4.40;99.90;;;;;;5110897;28;20871;-66
2021/03/01 07:31:42;;;;;;;27.97;20.00;;;4.40;99.90;;;;;;5110556;28;20721;-66
2021/03/01 07:34:09;;;;;;;28.07;18.73;;;4.40;99.90;;;;;;5110494;28;20393;-66
2021/03/01 07:36:36;;;;;;;23.97;18.70;;;4.50;99.90;;;;;;5111303;28;20415;-66
2021/03/01 07:39:06;;;;;;;24.60;18.83;;;4.50;99.90;;;;;;5110577;28;20390;-66
2021/03/01 07:41:31;;;;;;;22.17;18.40;;;4.60;99.90;;;;;;5110528;28;20384;-66
2021/03/01 07:43:58;;;;;;;25.83;18.90;;;4.80;99.90;;;;;;5111365;28;20748;-66
2021/03/01 07:46:26;;;;;;;23.57;18.20;;;4.90;99.90;;;;;;5130472;28;20209;-66
2021/03/01 07:48:52;;;;;;;22.50;19.87;;;5.00;99.90;;;;;;5130777;27;20399;-66
2021/03/01 07:51:38;;;;;;;22.40;17.87;;;5.10;99.90;;;;;;5131014;27;20387;-66
2021/03/01 07:54:04;;;;;;;20.43;16.30;;;5.20;99.90;;;;;;5110906;28;20171;-66
2021/03/01 07:59:10;;;;;;;18.63;16.13;;;5.30;99.90;;;;;;5131457;27;20558;-66
2021/03/01 08:01:37;;;;;;;19.10;17.10;;;5.40;99.90;;;;;;5131479;27;20396;-66
2021/03/01 08:04:03;;;;;;;16.70;14.93;;;5.40;99.90;;;;;;5131582;27;20466;-66
2021/03/01 08:06:56;;;;;;;19.17;16.30;;;5.50;99.90;;;;;;5131396;27;20380;-66
2021/03/01 08:15:11;;;;;;;17.60;14.70;;;5.50;99.90;;;;;;5111015;27;20497;-66
2021/03/01 08:17:39;;;;;;;16.83;14.70;;;5.50;99.90;;;;;;5111197;28;20365;-66
2021/03/01 08:30:55;;;;;;;18.13;15.53;;;5.50;99.90;;;;;;5090655;28;20514;-66
2021/03/01 08:33:25;;;;;;;20.73;15.90;;;5.40;99.90;;;;;;5090568;28;20446;-65
2021/03/01 08:35:52;;;;;;;18.60;15.40;;;5.30;99.90;;;;;;5090531;28;20391;-66
2021/03/01 08:41:39;;;;;;;19.37;16.07;;;5.50;99.90;;;;;;5111260;27;20511;-66
2021/03/01 08:47:04;;;;;;;21.93;17.10;;;5.50;99.90;;;;;;5131451;27;20521;-66
2021/03/01 08:49:29;;;;;;;20.03;17.23;;;5.50;99.90;;;;;;5131643;27;20384;-66
2021/03/01 08:51:55;;;;;;;19.73;17.23;;;5.50;99.90;;;;;;5131486;27;20790;-66
2021/03/01 08:54:29;;;;;;;20.20;15.70;;;5.50;99.90;;;;;;5131560;27;20491;-66
2021/03/01 08:57:02;;;;;;;19.07;15.93;;;5.50;99.90;;;;;;5130351;28;20383;-66
2021/03/01 08:59:27;;;;;;;19.03;14.80;;;5.60;99.90;;;;;;5131683;27;20883;-66
2021/03/01 09:01:53;;;;;;;17.90;16.00;;;5.60;99.90;;;;;;5114319;27;20396;-66
2021/03/01 09:04:18;;;;;;;16.67;14.50;;;5.70;99.90;;;;;;5110593;28;20563;-66
2021/03/01 09:06:44;;;;;;;15.60;13.90;;;5.60;99.90;;;;;;5110745;28;20193;-65
2021/03/01 09:09:09;;;;;;;17.80;14.77;;;5.60;99.90;;;;;;5110877;28;20154;-66
2021/03/01 09:11:36;;;;;;;16.80;14.67;;;5.50;99.90;;;;;;5110693;28;20154;-66
2021/03/01 09:14:04;;;;;;;16.80;13.93;;;5.50;99.90;;;;;;5110367;27;20150;-66
2021/03/01 09:16:32;;;;;;;16.80;13.30;;;5.40;99.90;;;;;;5110529;28;20908;-66
2021/03/01 09:19:00;;;;;;;15.87;14.17;;;5.40;99.90;;;;;;5111037;28;20407;-65
2021/03/01 09:21:26;;;;;;;20.53;16.27;;;5.30;99.90;;;;;;5110272;28;20388;-67
2021/03/01 09:23:54;;;;;;;17.43;15.63;;;5.20;99.90;;;;;;5109377;28;20759;-66
2021/03/01 09:26:32;;;;;;;17.23;15.37;;;5.10;99.90;;;;;;5110260;28;20467;-66
2021/03/01 09:29:03;;;;;;;20.50;16.97;;;5.10;99.90;;;;;;5108962;28;20418;-66
2021/03/01 09:31:30;;;;;;;18.23;16.23;;;5.10;99.90;;;;;;5110098;28;20392;-66
2021/03/01 09:33:56;;;;;;;18.70;15.23;;;5.00;99.90;;;;;;5110509;27;20384;-66
2021/03/01 09:36:27;;;;;;;17.80;15.27;;;5.10;99.90;;;;;;5110289;28;20407;-66
2021/03/01 09:38:53;;;;;;;18.83;15.17;;;5.10;99.90;;;;;;5110557;28;20400;-66
2021/03/01 09:41:19;;;;;;;19.07;16.47;;;5.10;99.90;;;;;;5110128;28;20388;-68
2021/03/01 09:43:48;;;;;;;23.93;15.80;;;5.10;99.90;;;;;;5109955;28;20207;-66
2021/03/01 09:46:14;;;;;;;18.33;16.37;;;5.10;99.90;;;;;;5109569;28;20459;-66
2021/03/01 09:48:45;;;;;;;20.43;17.27;;;5.10;99.90;;;;;;5109951;28;20471;-66
2021/03/01 09:51:11;;;;;;;19.80;15.40;;;5.20;99.90;;;;;;5112066;28;20548;-66
2021/03/01 09:53:37;;;;;;;20.87;15.60;;;5.20;99.90;;;;;;5130414;27;20407;-66
2021/03/01 09:56:04;;;;;;;17.33;14.33;;;5.20;99.90;;;;;;5129956;27;20444;-66
2021/03/01 09:58:34;;;;;;;22.40;16.77;;;5.30;99.90;;;;;;5115819;28;20915;-66
2021/03/01 10:01:17;;;;;;;18.70;16.10;;;5.30;99.90;;;;;;5116414;28;20400;-66
2021/03/01 10:06:38;;;;;;;19.37;16.37;;;5.40;99.90;;;;;;5111262;27;20521;-66
2021/03/01 10:09:08;;;;;;;18.00;15.90;;;5.50;99.90;;;;;;5101091;28;20492;-66
2021/03/01 10:11:34;;;;;;;19.00;16.43;;;5.60;99.90;;;;;;5090284;28;20398;-66
2021/03/01 10:14:15;;;;;;;22.77;17.93;;;5.70;99.90;;;;;;5090548;28;20406;-66
2021/03/01 10:16:42;;;;;;;20.60;16.40;;;5.70;99.90;;;;;;5090506;28;20422;-66
2021/03/01 10:21:47;;;;;;;16.30;13.90;;;5.80;99.90;;;;;;5090911;27;20516;-66
2021/03/01 10:24:15;;;;;;;18.90;14.87;;;6.00;99.90;;;;;;5090737;28;20395;-66
2021/03/01 10:27:00;;;;;;;19.10;16.57;;;6.00;99.90;;;;;;5074489;28;20401;-66
2021/03/01 10:29:30;;;;;;;16.70;14.90;;;6.10;99.90;;;;;;5070336;28;20463;-66
2021/03/01 10:31:56;;;;;;;16.67;13.20;;;6.10;99.90;;;;;;5070702;28;20407;-66
2021/03/01 10:34:31;;;;;;;15.67;14.10;;;6.20;99.90;;;;;;5070302;28;20385;-66
2021/03/01 10:36:58;;;;;;;18.30;16.40;;;6.30;99.90;;;;;;5070292;28;20155;-66
2021/03/01 10:42:13;;;;;;;18.63;14.87;;;6.30;99.90;;;;;;5109916;27;20518;-66
2021/03/01 10:49:56;;;;;;;15.27;13.67;;;6.50;99.90;;;;;;5131637;27;20575;-74
2021/03/01 10:52:23;;;;;;;16.43;12.77;;;6.60;99.90;;;;;;5131499;27;20795;-67
2021/03/01 10:54:49;;;;;;;16.30;13.03;;;6.70;99.90;;;;;;5131797;27;20373;-66
2021/03/01 10:57:14;;;;;;;18.17;14.67;;;6.70;99.90;;;;;;5131433;27;20376;-66
2021/03/01 10:59:40;;;;;;;15.07;13.53;;;6.70;99.90;;;;;;5124654;28;20734;-66
2021/03/01 11:02:07;;;;;;;17.70;13.13;;;6.80;99.90;;;;;;5111045;28;20167;-66
2021/03/01 11:04:33;;;;;;;15.10;13.60;;;6.90;99.90;;;;;;5110899;28;20404;-67
2021/03/01 11:06:59;;;;;;;15.70;12.60;;;6.90;99.90;;;;;;5110826;28;20383;-66
2021/03/01 11:09:25;;;;;;;15.33;13.17;;;7.00;99.90;;;;;;5110555;28;20436;-66
2021/03/01 11:11:52;;;;;;;13.87;12.47;;;7.00;99.90;;;;;;5110812;28;20382;-66
2021/03/01 11:14:19;;;;;;;14.07;12.23;;;7.10;99.90;;;;;;5110679;28;20216;-66
2021/03/01 11:16:45;;;;;;;14.60;12.83;;;7.20;99.90;;;;;;5111117;28;20771;-66
2021/03/01 11:19:12;;;;;;;13.47;11.83;;;7.20;99.90;;;;;;5110629;28;20404;-65
2021/03/01 11:21:38;;;;;;;15.37;12.23;;;7.30;99.90;;;;;;5110426;28;20242;-66
2021/03/01 11:24:04;;;;;;;11.83;10.67;;;7.40;99.90;;;;;;5110753;28;20402;-65
2021/03/01 11:26:30;;;;;;;13.67;11.57;;;7.50;99.90;;;;;;5110680;28;20403;-66
2021/03/01 11:28:56;;;;;;;11.37;9.57;;;7.50;99.90;;;;;;5110337;28;20507;-66
2021/03/01 11:31:23;;;;;;;12.87;10.73;;;7.70;99.90;;;;;;5110431;28;20161;-65
2021/03/01 11:33:49;;;;;;;15.87;11.93;;;7.70;99.90;;;;;;5110819;28;20168;-66
2021/03/01 11:36:15;;;;;;;11.80;10.60;;;7.80;99.90;;;;;;5110100;28;20393;-66
2021/03/01 11:38:41;;;;;;;15.10;10.97;;;7.80;99.90;;;;;;5110145;28;20194;-65
2021/03/01 11:41:06;;;;;;;13.23;9.20;;;7.90;99.90;;;;;;5110288;28;20891;-65
2021/03/01 11:43:33;;;;;;;13.03;10.57;;;8.00;99.90;;;;;;5110311;28;20471;-65
2021/03/01 11:45:59;;;;;;;14.20;10.50;;;8.00;99.90;;;;;;5128662;28;20228;-65
2021/03/01 11:48:25;;;;;;;13.30;11.90;;;8.10;99.90;;;;;;5130453;27;20802;-65
2021/03/01 11:50:51;;;;;;;13.90;12.47;;;8.10;99.90;;;;;;5129575;27;20412;-65
2021/03/01 11:53:17;;;;;;;13.20;11.30;;;8.20;99.90;;;;;;5130462;27;20171;-65
2021/03/01 11:55:44;;;;;;;13.53;12.13;;;8.20;99.90;;;;;;5130291;27;20745;-66
2021/03/01 11:58:10;;;;;;;14.47;11.50;;;8.20;99.90;;;;;;5130270;27;20225;-66
2021/03/01 12:00:39;;;;;;;15.47;13.00;;;8.20;99.90;;;;;;5119702;28;20394;-67
2021/03/01 12:03:05;;;;;;;15.63;12.07;;;8.30;99.90;;;;;;5116324;28;20418;-66
2021/03/01 12:05:32;;;;;;;11.13;9.83;;;8.40;99.90;;;;;;5116283;27;20494;-66
2021/03/01 12:07:57;;;;;;;13.20;10.73;;;8.40;99.90;;;;;;5114497;28;20601;-66
2021/03/01 12:10:23;;;;;;;12.17;9.90;;;8.50;99.90;;;;;;5116375;28;20429;-66
2021/03/01 12:12:48;;;;;;;15.27;10.93;;;8.50;99.90;;;;;;5116239;28;20225;-66
2021/03/01 12:15:14;;;;;;;11.87;10.60;;;8.50;99.90;;;;;;5116409;28;20160;-66
2021/03/01 12:17:40;;;;;;;12.27;10.97;;;8.60;99.90;;;;;;5116173;28;20210;-66
2021/03/01 12:20:06;;;;;;;13.33;10.67;;;8.50;99.90;;;;;;5116319;28;20207;-66
2021/03/01 12:22:32;;;;;;;12.37;10.00;;;8.50;99.90;;;;;;5116473;27;20569;-66
2021/03/01 12:24:57;;;;;;;12.97;11.47;;;8.50;99.90;;;;;;5115633;28;20411;-66
2021/03/01 12:27:23;;;;;;;11.40;10.03;;;8.60;99.90;;;;;;5116275;28;20210;-66
2021/03/01 12:29:48;;;;;;;14.90;11.47;;;8.60;99.90;;;;;;5115969;27;20189;-67
2021/03/01 12:32:14;;;;;;;15.50;11.13;;;8.60;99.90;;;;;;5115949;27;20250;-66
2021/03/01 12:34:41;;;;;;;12.90;10.70;;;8.70;99.90;;;;;;5115927;28;20210;-67
2021/03/01 12:37:08;;;;;;;13.10;11.53;;;8.70;99.90;;;;;;5116176;28;20710;-66
2021/03/01 12:39:35;;;;;;;11.60;10.40;;;8.70;99.90;;;;;;5115712;28;20943;-66
2021/03/01 12:42:00;;;;;;;13.23;11.37;;;8.70;99.90;;;;;;5114814;28;20403;-66
2021/03/01 12:44:26;;;;;;;13.10;11.13;;;8.70;99.90;;;;;;5110296;28;20408;-66
2021/03/01 12:46:51;;;;;;;14.50;11.37;;;8.80;99.90;;;;;;5095383;28;20190;-66
2021/03/01 12:49:17;;;;;;;12.53;11.23;;;8.90;99.90;;;;;;5095081;28;20206;-66
2021/03/01 12:51:43;;;;;;;11.87;10.53;;;8.90;99.90;;;;;;5094946;28;20162;-66
2021/03/01 12:54:09;;;;;;;12.93;11.57;;;8.90;99.90;;;;;;5094840;28;20154;-66
2021/03/01 12:56:35;;;;;;;15.60;12.60;;;8.90;99.90;;;;;;5095068;28;20204;-66
2021/03/01 12:59:01;;;;;;;15.67;12.87;;;8.90;99.90;;;;;;5095617;28;20818;-66
2021/03/01 13:01:26;;;;;;;13.60;12.10;;;8.90;99.90;;;;;;5095401;28;20642;-66
2021/03/01 13:03:52;;;;;;;13.63;10.70;;;8.90;99.90;;;;;;5094755;28;20173;-66
2021/03/01 13:06:17;;;;;;;15.97;12.40;;;8.90;99.90;;;;;;5094805;28;20615;-66
2021/03/01 13:08:44;;;;;;;15.70;11.80;;;8.90;99.90;;;;;;5094752;28;20197;-65
2021/03/01 13:11:10;;;;;;;13.53;11.00;;;8.90;99.90;;;;;;5094318;28;20204;-66
2021/03/01 13:13:36;;;;;;;17.80;14.70;;;9.00;99.90;;;;;;5094804;28;20381;-66
2021/03/01 13:16:02;;;;;;;14.80;12.80;;;9.00;99.90;;;;;;5095426;28;20416;-65
2021/03/01 13:18:28;;;;;;;15.77;12.33;;;9.00;99.90;;;;;;5094563;28;20192;-65
2021/03/01 13:20:53;;;;;;;15.00;12.47;;;9.00;99.90;;;;;;5094728;28;20409;-67
2021/03/01 13:23:19;;;;;;;16.43;12.47;;;9.00;99.90;;;;;;5094513;28;20454;-67
2021/03/01 13:25:45;;;;;;;15.40;11.97;;;9.00;99.90;;;;;;5093352;28;20675;-67
2021/03/01 13:28:11;;;;;;;16.20;11.70;;;9.00;99.90;;;;;;5094348;28;20550;-67
2021/03/01 13:30:36;;;;;;;13.97;12.03;;;9.00;99.90;;;;;;5094344;28;20166;-67